This is the latest recevied weather packets stored in our database for station/object KD2DXJ. If no packets are shown the sender has not sent any weather packets the latest 10 day(s).
| Time | Temp. | Humidity | Pressure | Rain* | Wind** | Luminosity | Snow |
|---|---|---|---|---|---|---|---|
| 1777385413 | 18.33° C | 41% | 1015.4 hPa | 0 mm | - | 276 W/m² | - |
| 1777385110 | 18.89° C | 40% | 1015.2 hPa | 0 mm | - | 272 W/m² | - |
| 1777384805 | 19.44° C | 40% | 1015.4 hPa | 0 mm | - | 403 W/m² | - |
| 1777384502 | 18.89° C | 40% | 1015.3 hPa | 0 mm | - | 429 W/m² | - |
| 1777384197 | 18.33° C | 41% | 1015.3 hPa | 0 mm | - | 431 W/m² | - |
| 1777383894 | 17.78° C | 43% | 1015.6 hPa | 0 mm | - | 440 W/m² | - |
| 1777383589 | 18.33° C | 43% | 1015.5 hPa | 0 mm | - | 291 W/m² | - |
| 1777383286 | 18.89° C | 43% | 1015.6 hPa | 0 mm | - | 354 W/m² | - |
| 1777382983 | 17.78° C | 44% | 1015.6 hPa | 0 mm | - | 419 W/m² | - |
| 1777382679 | 17.78° C | 44% | 1015.7 hPa | 0 mm | - | 410 W/m² | - |
| 1777382374 | 17.78° C | 45% | 1015.6 hPa | 0 mm | - | 388 W/m² | - |
| 1777382070 | 17.78° C | 46% | 1015.4 hPa | 0 mm | - | 366 W/m² | - |
| 1777381767 | 17.78° C | 46% | 1015.3 hPa | 0 mm | - | 344 W/m² | - |
| 1777381461 | 17.22° C | 48% | 1015.3 hPa | 0 mm | - | 320 W/m² | - |
| 1777381158 | 17.22° C | 47% | 1015.1 hPa | 0 mm | - | 305 W/m² | - |
| 1777380855 | 17.22° C | 50% | 1015.3 hPa | 0 mm | - | 312 W/m² | - |
| 1777380552 | 16.67° C | 48% | 1015.2 hPa | 0 mm | - | 307 W/m² | - |
| 1777380248 | 16.67° C | 48% | 1015.1 hPa | 0 mm | - | 298 W/m² | - |
| 1777379944 | 16.67° C | 50% | 1015.1 hPa | 0 mm | - | 280 W/m² | - |
| 1777379640 | 16.67° C | 50% | 1015 hPa | 0 mm | - | 166 W/m² | - |
| 1777379330 | 16.67° C | 50% | 1015.1 hPa | 0 mm | - | 238 W/m² | - |
| 1777379030 | 16.11° C | 52% | 1015.4 hPa | 0 mm | - | 238 W/m² | - |
| 1777378726 | 16.11° C | 52% | 1015.3 hPa | 0 mm | - | 216 W/m² | - |
| 1777378423 | 15.56° C | 52% | 1015.4 hPa | 0 mm | - | 46 W/m² | - |
| 1777378117 | 16.11° C | 54% | 1015.4 hPa | 0 mm | - | 68 W/m² | - |
* Rain latest hour (hover to see other rain measurements)
** Current wind speed in m/s (hover to see current wind gust speed)